sensor_id;sensor_type;location;lat;lon;timestamp;temperature;humidity
76299;DHT22;65236;42.332;23.550;2022-11-23T00:02:24;5.14;85.25
76299;DHT22;65236;42.332;23.550;2022-11-23T00:04:50;5.07;85.50
76299;DHT22;65236;42.332;23.550;2022-11-23T00:07:15;5.12;85.87
76299;DHT22;65236;42.332;23.550;2022-11-23T00:09:41;5.15;86.05
76299;DHT22;65236;42.332;23.550;2022-11-23T00:12:06;5.15;86.44
76299;DHT22;65236;42.332;23.550;2022-11-23T00:14:32;5.19;86.46
76299;DHT22;65236;42.332;23.550;2022-11-23T00:16:57;5.19;86.54
76299;DHT22;65236;42.332;23.550;2022-11-23T00:19:23;5.21;86.72
76299;DHT22;65236;42.332;23.550;2022-11-23T00:21:48;5.21;86.87
76299;DHT22;65236;42.332;23.550;2022-11-23T00:24:13;5.22;86.77
76299;DHT22;65236;42.332;23.550;2022-11-23T00:26:39;5.28;86.63
76299;DHT22;65236;42.332;23.550;2022-11-23T00:29:04;5.39;86.94
76299;DHT22;65236;42.332;23.550;2022-11-23T00:31:30;5.46;86.87
76299;DHT22;65236;42.332;23.550;2022-11-23T00:33:56;5.53;86.93
76299;DHT22;65236;42.332;23.550;2022-11-23T00:36:23;5.71;87.08
76299;DHT22;65236;42.332;23.550;2022-11-23T00:38:49;5.80;86.87
76299;DHT22;65236;42.332;23.550;2022-11-23T00:41:20;5.93;86.74
76299;DHT22;65236;42.332;23.550;2022-11-23T00:43:46;5.98;86.43
76299;DHT22;65236;42.332;23.550;2022-11-23T00:46:20;6.04;86.31
76299;DHT22;65236;42.332;23.550;2022-11-23T00:48:48;6.07;86.08
76299;DHT22;65236;42.332;23.550;2022-11-23T00:51:19;6.17;86.03
76299;DHT22;65236;42.332;23.550;2022-11-23T00:53:45;6.18;85.76
76299;DHT22;65236;42.332;23.550;2022-11-23T00:56:11;6.18;84.95
76299;DHT22;65236;42.332;23.550;2022-11-23T00:58:36;6.18;83.14
76299;DHT22;65236;42.332;23.550;2022-11-23T01:01:12;6.01;82.94
76299;DHT22;65236;42.332;23.550;2022-11-23T01:03:42;5.83;82.74
76299;DHT22;65236;42.332;23.550;2022-11-23T01:06:11;5.46;83.97
76299;DHT22;65236;42.332;23.550;2022-11-23T01:08:37;5.45;84.57
76299;DHT22;65236;42.332;23.550;2022-11-23T01:11:05;5.47;84.68
76299;DHT22;65236;42.332;23.550;2022-11-23T01:13:31;5.31;85.29
76299;DHT22;65236;42.332;23.550;2022-11-23T01:15:57;5.34;86.40
76299;DHT22;65236;42.332;23.550;2022-11-23T01:18:23;5.45;86.05
76299;DHT22;65236;42.332;23.550;2022-11-23T01:20:49;5.35;86.10
76299;DHT22;65236;42.332;23.550;2022-11-23T01:23:14;5.42;86.81
76299;DHT22;65236;42.332;23.550;2022-11-23T01:25:40;5.47;86.73
76299;DHT22;65236;42.332;23.550;2022-11-23T01:28:05;5.50;86.80
76299;DHT22;65236;42.332;23.550;2022-11-23T01:30:31;5.62;86.52
76299;DHT22;65236;42.332;23.550;2022-11-23T01:32:56;5.62;85.89
76299;DHT22;65236;42.332;23.550;2022-11-23T01:35:22;5.66;85.61
76299;DHT22;65236;42.332;23.550;2022-11-23T01:37:47;5.62;85.56
76299;DHT22;65236;42.332;23.550;2022-11-23T01:40:12;5.62;85.79
76299;DHT22;65236;42.332;23.550;2022-11-23T01:43:03;5.66;85.77
76299;DHT22;65236;42.332;23.550;2022-11-23T01:45:40;5.71;85.24
76299;DHT22;65236;42.332;23.550;2022-11-23T01:48:12;5.74;85.22
76299;DHT22;65236;42.332;23.550;2022-11-23T01:50:38;5.70;85.17
76299;DHT22;65236;42.332;23.550;2022-11-23T01:53:04;5.71;85.72
76299;DHT22;65236;42.332;23.550;2022-11-23T01:55:30;5.86;86.21
76299;DHT22;65236;42.332;23.550;2022-11-23T01:57:55;5.83;85.73
76299;DHT22;65236;42.332;23.550;2022-11-23T02:00:21;5.89;85.72
76299;DHT22;65236;42.332;23.550;2022-11-23T02:02:51;5.95;85.59
76299;DHT22;65236;42.332;23.550;2022-11-23T02:05:18;6.01;85.65
76299;DHT22;65236;42.332;23.550;2022-11-23T02:07:47;6.10;84.76
76299;DHT22;65236;42.332;23.550;2022-11-23T02:10:14;6.07;85.21
76299;DHT22;65236;42.332;23.550;2022-11-23T02:12:40;6.12;85.63
76299;DHT22;65236;42.332;23.550;2022-11-23T02:15:06;6.12;85.28
76299;DHT22;65236;42.332;23.550;2022-11-23T02:17:32;6.20;85.14
76299;DHT22;65236;42.332;23.550;2022-11-23T02:20:11;6.21;84.98
76299;DHT22;65236;42.332;23.550;2022-11-23T02:25:21;6.43;85.71
76299;DHT22;65236;42.332;23.550;2022-11-23T02:27:49;6.52;85.61
76299;DHT22;65236;42.332;23.550;2022-11-23T02:30:15;6.60;85.32
76299;DHT22;65236;42.332;23.550;2022-11-23T02:32:41;6.65;85.10
76299;DHT22;65236;42.332;23.550;2022-11-23T02:35:09;6.62;84.60
76299;DHT22;65236;42.332;23.550;2022-11-23T02:37:36;6.59;84.49
76299;DHT22;65236;42.332;23.550;2022-11-23T02:40:03;6.54;85.07
76299;DHT22;65236;42.332;23.550;2022-11-23T02:42:35;6.43;84.90
76299;DHT22;65236;42.332;23.550;2022-11-23T02:45:15;6.29;85.50
76299;DHT22;65236;42.332;23.550;2022-11-23T02:47:42;6.20;86.65
76299;DHT22;65236;42.332;23.550;2022-11-23T02:50:08;6.07;87.36
76299;DHT22;65236;42.332;23.550;2022-11-23T02:52:33;6.01;88.09
76299;DHT22;65236;42.332;23.550;2022-11-23T02:54:59;5.98;88.62
76299;DHT22;65236;42.332;23.550;2022-11-23T02:57:25;5.94;89.03
76299;DHT22;65236;42.332;23.550;2022-11-23T02:59:50;5.87;89.16
76299;DHT22;65236;42.332;23.550;2022-11-23T03:02:16;5.84;89.39
76299;DHT22;65236;42.332;23.550;2022-11-23T03:04:41;5.89;89.66
76299;DHT22;65236;42.332;23.550;2022-11-23T03:07:06;5.83;89.88
76299;DHT22;65236;42.332;23.550;2022-11-23T03:09:32;5.83;90.01
76299;DHT22;65236;42.332;23.550;2022-11-23T03:11:57;5.81;90.01
76299;DHT22;65236;42.332;23.550;2022-11-23T03:14:23;5.76;90.00
76299;DHT22;65236;42.332;23.550;2022-11-23T03:16:48;5.77;90.15
76299;DHT22;65236;42.332;23.550;2022-11-23T03:19:14;5.76;89.91
76299;DHT22;65236;42.332;23.550;2022-11-23T03:21:39;5.76;89.83
76299;DHT22;65236;42.332;23.550;2022-11-23T03:24:05;5.74;89.75
76299;DHT22;65236;42.332;23.550;2022-11-23T03:26:30;5.73;89.91
76299;DHT22;65236;42.332;23.550;2022-11-23T03:28:56;5.80;90.09
76299;DHT22;65236;42.332;23.550;2022-11-23T03:31:21;5.87;90.33
76299;DHT22;65236;42.332;23.550;2022-11-23T03:33:46;5.95;90.21
76299;DHT22;65236;42.332;23.550;2022-11-23T03:36:12;6.04;90.21
76299;DHT22;65236;42.332;23.550;2022-11-23T03:38:37;6.10;90.22
76299;DHT22;65236;42.332;23.550;2022-11-23T03:41:03;6.14;90.35
76299;DHT22;65236;42.332;23.550;2022-11-23T03:43:28;6.21;90.35
76299;DHT22;65236;42.332;23.550;2022-11-23T03:45:54;6.18;90.03
76299;DHT22;65236;42.332;23.550;2022-11-23T03:48:19;6.18;90.09
76299;DHT22;65236;42.332;23.550;2022-11-23T03:50:44;6.25;89.89
76299;DHT22;65236;42.332;23.550;2022-11-23T03:53:10;6.20;89.33
76299;DHT22;65236;42.332;23.550;2022-11-23T03:55:36;6.17;89.37
76299;DHT22;65236;42.332;23.550;2022-11-23T03:58:02;6.21;89.59
76299;DHT22;65236;42.332;23.550;2022-11-23T04:00:29;6.14;89.87
76299;DHT22;65236;42.332;23.550;2022-11-23T04:02:54;6.15;90.08
76299;DHT22;65236;42.332;23.550;2022-11-23T04:05:20;6.18;90.30
76299;DHT22;65236;42.332;23.550;2022-11-23T04:07:46;6.17;90.65
76299;DHT22;65236;42.332;23.550;2022-11-23T04:10:17;6.20;90.93
76299;DHT22;65236;42.332;23.550;2022-11-23T04:12:42;6.20;91.10
76299;DHT22;65236;42.332;23.550;2022-11-23T04:15:08;6.24;91.37
76299;DHT22;65236;42.332;23.550;2022-11-23T04:17:34;6.29;91.56
76299;DHT22;65236;42.332;23.550;2022-11-23T04:20:00;6.29;91.60
76299;DHT22;65236;42.332;23.550;2022-11-23T04:22:25;6.29;91.67
76299;DHT22;65236;42.332;23.550;2022-11-23T04:24:50;6.25;91.16
76299;DHT22;65236;42.332;23.550;2022-11-23T04:27:16;6.15;91.11
76299;DHT22;65236;42.332;23.550;2022-11-23T04:29:41;6.11;91.23
76299;DHT22;65236;42.332;23.550;2022-11-23T04:32:07;6.15;91.36
76299;DHT22;65236;42.332;23.550;2022-11-23T04:34:32;6.15;91.23
76299;DHT22;65236;42.332;23.550;2022-11-23T04:36:58;6.11;91.06
76299;DHT22;65236;42.332;23.550;2022-11-23T04:39:23;6.12;91.11
76299;DHT22;65236;42.332;23.550;2022-11-23T04:41:48;6.15;91.16
76299;DHT22;65236;42.332;23.550;2022-11-23T04:44:14;6.11;91.12
76299;DHT22;65236;42.332;23.550;2022-11-23T04:46:39;6.10;91.09
76299;DHT22;65236;42.332;23.550;2022-11-23T04:49:04;6.07;90.73
76299;DHT22;65236;42.332;23.550;2022-11-23T04:51:30;5.98;90.79
76299;DHT22;65236;42.332;23.550;2022-11-23T04:53:55;6.03;91.03
76299;DHT22;65236;42.332;23.550;2022-11-23T04:56:21;6.03;91.15
76299;DHT22;65236;42.332;23.550;2022-11-23T04:58:46;6.00;91.07
76299;DHT22;65236;42.332;23.550;2022-11-23T05:01:12;6.01;91.01
76299;DHT22;65236;42.332;23.550;2022-11-23T05:03:37;5.98;90.55
76299;DHT22;65236;42.332;23.550;2022-11-23T05:06:03;5.91;90.41
76299;DHT22;65236;42.332;23.550;2022-11-23T05:08:29;5.94;90.71
76299;DHT22;65236;42.332;23.550;2022-11-23T05:10:55;5.89;90.91
76299;DHT22;65236;42.332;23.550;2022-11-23T05:13:20;5.91;91.02
76299;DHT22;65236;42.332;23.550;2022-11-23T05:15:46;5.89;91.10
76299;DHT22;65236;42.332;23.550;2022-11-23T05:18:11;5.89;91.25
76299;DHT22;65236;42.332;23.550;2022-11-23T05:20:37;5.84;91.32
76299;DHT22;65236;42.332;23.550;2022-11-23T05:23:02;5.84;91.45
76299;DHT22;65236;42.332;23.550;2022-11-23T05:25:28;5.78;91.45
76299;DHT22;65236;42.332;23.550;2022-11-23T05:27:53;5.83;91.71
76299;DHT22;65236;42.332;23.550;2022-11-23T05:30:19;5.97;91.93
76299;DHT22;65236;42.332;23.550;2022-11-23T05:32:44;6.03;92.07
76299;DHT22;65236;42.332;23.550;2022-11-23T05:35:10;6.17;92.21
76299;DHT22;65236;42.332;23.550;2022-11-23T05:37:37;6.26;92.28
76299;DHT22;65236;42.332;23.550;2022-11-23T05:40:03;6.35;92.28
76299;DHT22;65236;42.332;23.550;2022-11-23T05:42:29;6.35;92.08
76299;DHT22;65236;42.332;23.550;2022-11-23T05:44:54;6.33;91.83
76299;DHT22;65236;42.332;23.550;2022-11-23T05:47:19;6.38;91.47
76299;DHT22;65236;42.332;23.550;2022-11-23T05:49:45;6.28;91.22
76299;DHT22;65236;42.332;23.550;2022-11-23T05:52:10;6.31;91.30
76299;DHT22;65236;42.332;23.550;2022-11-23T05:54:35;6.39;91.32
76299;DHT22;65236;42.332;23.550;2022-11-23T05:57:01;6.41;91.12
76299;DHT22;65236;42.332;23.550;2022-11-23T05:59:26;6.38;90.60
76299;DHT22;65236;42.332;23.550;2022-11-23T06:01:52;6.43;90.02
76299;DHT22;65236;42.332;23.550;2022-11-23T06:04:17;6.42;89.83
76299;DHT22;65236;42.332;23.550;2022-11-23T06:06:43;6.46;89.91
76299;DHT22;65236;42.332;23.550;2022-11-23T06:09:08;6.56;90.24
76299;DHT22;65236;42.332;23.550;2022-11-23T06:11:34;6.69;90.64
76299;DHT22;65236;42.332;23.550;2022-11-23T06:13:59;6.77;90.77
76299;DHT22;65236;42.332;23.550;2022-11-23T06:16:25;6.81;90.66
76299;DHT22;65236;42.332;23.550;2022-11-23T06:18:50;6.80;90.47
76299;DHT22;65236;42.332;23.550;2022-11-23T06:21:16;6.88;90.69
76299;DHT22;65236;42.332;23.550;2022-11-23T06:23:41;6.88;90.40
76299;DHT22;65236;42.332;23.550;2022-11-23T06:26:06;6.81;90.06
76299;DHT22;65236;42.332;23.550;2022-11-23T06:28:32;6.83;90.20
76299;DHT22;65236;42.332;23.550;2022-11-23T06:31:04;6.81;90.09
76299;DHT22;65236;42.332;23.550;2022-11-23T06:33:31;6.72;89.97
76299;DHT22;65236;42.332;23.550;2022-11-23T06:35:58;6.69;89.94
76299;DHT22;65236;42.332;23.550;2022-11-23T06:38:24;6.69;89.84
76299;DHT22;65236;42.332;23.550;2022-11-23T06:40:50;6.56;89.86
76299;DHT22;65236;42.332;23.550;2022-11-23T06:43:15;6.73;90.11
76299;DHT22;65236;42.332;23.550;2022-11-23T06:45:41;6.91;90.52
76299;DHT22;65236;42.332;23.550;2022-11-23T06:48:07;7.18;90.69
76299;DHT22;65236;42.332;23.550;2022-11-23T06:50:32;7.24;90.53
76299;DHT22;65236;42.332;23.550;2022-11-23T06:52:58;7.24;90.51
76299;DHT22;65236;42.332;23.550;2022-11-23T06:55:24;7.22;89.89
76299;DHT22;65236;42.332;23.550;2022-11-23T06:57:49;7.35;90.01
76299;DHT22;65236;42.332;23.550;2022-11-23T07:00:16;7.46;90.13
76299;DHT22;65236;42.332;23.550;2022-11-23T07:02:42;7.49;89.95
76299;DHT22;65236;42.332;23.550;2022-11-23T07:05:07;7.58;89.74
76299;DHT22;65236;42.332;23.550;2022-11-23T07:07:33;7.55;89.34
76299;DHT22;65236;42.332;23.550;2022-11-23T07:09:58;7.65;89.38
76299;DHT22;65236;42.332;23.550;2022-11-23T07:12:24;7.82;89.57
76299;DHT22;65236;42.332;23.550;2022-11-23T07:14:49;7.95;88.91
76299;DHT22;65236;42.332;23.550;2022-11-23T07:17:15;7.87;86.95
76299;DHT22;65236;42.332;23.550;2022-11-23T07:19:40;7.86;87.57
76299;DHT22;65236;42.332;23.550;2022-11-23T07:22:06;7.98;87.93
76299;DHT22;65236;42.332;23.550;2022-11-23T07:24:31;8.01;87.38
76299;DHT22;65236;42.332;23.550;2022-11-23T07:26:57;8.18;87.41
76299;DHT22;65236;42.332;23.550;2022-11-23T07:29:22;8.21;85.33
76299;DHT22;65236;42.332;23.550;2022-11-23T07:31:47;8.08;85.06
76299;DHT22;65236;42.332;23.550;2022-11-23T07:34:13;8.17;85.54
76299;DHT22;65236;42.332;23.550;2022-11-23T07:36:38;8.18;83.81
76299;DHT22;65236;42.332;23.550;2022-11-23T07:39:04;8.28;84.72
76299;DHT22;65236;42.332;23.550;2022-11-23T07:41:29;8.51;85.68
76299;DHT22;65236;42.332;23.550;2022-11-23T07:43:55;8.62;85.58
76299;DHT22;65236;42.332;23.550;2022-11-23T07:46:20;8.68;84.77
76299;DHT22;65236;42.332;23.550;2022-11-23T07:48:46;8.72;84.45
76299;DHT22;65236;42.332;23.550;2022-11-23T07:51:11;8.90;83.90
76299;DHT22;65236;42.332;23.550;2022-11-23T07:53:37;9.41;83.44
76299;DHT22;65236;42.332;23.550;2022-11-23T07:56:02;9.72;82.29
76299;DHT22;65236;42.332;23.550;2022-11-23T07:58:28;10.13;81.45
76299;DHT22;65236;42.332;23.550;2022-11-23T08:00:53;10.82;80.83
76299;DHT22;65236;42.332;23.550;2022-11-23T08:03:19;11.24;79.20
76299;DHT22;65236;42.332;23.550;2022-11-23T08:05:45;11.48;78.06
76299;DHT22;65236;42.332;23.550;2022-11-23T08:08:10;11.68;77.02
76299;DHT22;65236;42.332;23.550;2022-11-23T08:10:36;11.78;73.50
76299;DHT22;65236;42.332;23.550;2022-11-23T08:13:04;11.89;73.71
76299;DHT22;65236;42.332;23.550;2022-11-23T08:15:30;12.60;72.20
76299;DHT22;65236;42.332;23.550;2022-11-23T08:18:00;13.29;68.59
76299;DHT22;65236;42.332;23.550;2022-11-23T08:20:26;13.79;65.67
76299;DHT22;65236;42.332;23.550;2022-11-23T08:22:53;14.39;65.09
76299;DHT22;65236;42.332;23.550;2022-11-23T08:25:22;15.29;63.43
76299;DHT22;65236;42.332;23.550;2022-11-23T08:27:56;16.31;61.23
76299;DHT22;65236;42.332;23.550;2022-11-23T08:30:22;16.62;58.16
76299;DHT22;65236;42.332;23.550;2022-11-23T08:32:48;17.59;54.51
76299;DHT22;65236;42.332;23.550;2022-11-23T08:35:13;18.26;52.36
76299;DHT22;65236;42.332;23.550;2022-11-23T08:37:39;18.99;48.72
76299;DHT22;65236;42.332;23.550;2022-11-23T08:40:05;20.22;47.06
76299;DHT22;65236;42.332;23.550;2022-11-23T08:42:30;20.94;45.86
76299;DHT22;65236;42.332;23.550;2022-11-23T08:44:56;21.23;44.30
76299;DHT22;65236;42.332;23.550;2022-11-23T08:47:24;21.51;44.10
76299;DHT22;65236;42.332;23.550;2022-11-23T08:49:49;20.81;45.55
76299;DHT22;65236;42.332;23.550;2022-11-23T08:52:15;18.49;49.98
76299;DHT22;65236;42.332;23.550;2022-11-23T08:54:40;16.93;53.34
76299;DHT22;65236;42.332;23.550;2022-11-23T08:57:06;15.66;56.64
76299;DHT22;65236;42.332;23.550;2022-11-23T08:59:31;14.71;59.22
76299;DHT22;65236;42.332;23.550;2022-11-23T09:01:56;14.32;61.52
76299;DHT22;65236;42.332;23.550;2022-11-23T09:04:22;14.02;62.48
76299;DHT22;65236;42.332;23.550;2022-11-23T09:06:47;13.74;63.43
76299;DHT22;65236;42.332;23.550;2022-11-23T09:09:13;13.68;64.05
76299;DHT22;65236;42.332;23.550;2022-11-23T09:11:38;14.66;60.96
76299;DHT22;65236;42.332;23.550;2022-11-23T09:14:04;17.87;54.15
76299;DHT22;65236;42.332;23.550;2022-11-23T09:16:29;20.43;48.22
76299;DHT22;65236;42.332;23.550;2022-11-23T09:18:55;21.91;43.07
76299;DHT22;65236;42.332;23.550;2022-11-23T09:21:21;23.06;40.76
76299;DHT22;65236;42.332;23.550;2022-11-23T09:23:46;22.60;41.14
76299;DHT22;65236;42.332;23.550;2022-11-23T09:26:12;24.18;38.71
76299;DHT22;65236;42.332;23.550;2022-11-23T09:28:37;25.13;37.69
76299;DHT22;65236;42.332;23.550;2022-11-23T09:31:03;24.45;37.84
76299;DHT22;65236;42.332;23.550;2022-11-23T09:33:29;25.82;37.03
76299;DHT22;65236;42.332;23.550;2022-11-23T09:36:02;27.66;32.91
76299;DHT22;65236;42.332;23.550;2022-11-23T09:38:28;28.70;31.55
76299;DHT22;65236;42.332;23.550;2022-11-23T09:50:17;30.31;28.02
76299;DHT22;65236;42.332;23.550;2022-11-23T09:52:48;31.57;27.52
76299;DHT22;65236;42.332;23.550;2022-11-23T09:55:23;32.94;25.89
76299;DHT22;65236;42.332;23.550;2022-11-23T09:57:55;33.98;25.11
76299;DHT22;65236;42.332;23.550;2022-11-23T10:00:32;34.73;24.06
76299;DHT22;65236;42.332;23.550;2022-11-23T10:02:59;35.33;23.69
76299;DHT22;65236;42.332;23.550;2022-11-23T10:05:30;33.10;25.10
76299;DHT22;65236;42.332;23.550;2022-11-23T10:22:10;25.09;35.83
76299;DHT22;65236;42.332;23.550;2022-11-23T10:24:51;24.35;36.70
76299;DHT22;65236;42.332;23.550;2022-11-23T10:27:20;26.40;32.26
76299;DHT22;65236;42.332;23.550;2022-11-23T10:29:47;26.61;32.94
76299;DHT22;65236;42.332;23.550;2022-11-23T10:35:04;31.98;26.97
76299;DHT22;65236;42.332;23.550;2022-11-23T10:37:31;31.57;25.13
76299;DHT22;65236;42.332;23.550;2022-11-23T10:39:57;29.69;26.57
76299;DHT22;65236;42.332;23.550;2022-11-23T10:42:36;28.66;29.44
76299;DHT22;65236;42.332;23.550;2022-11-23T10:45:03;27.03;31.35
76299;DHT22;65236;42.332;23.550;2022-11-23T10:49:59;25.71;32.80
76299;DHT22;65236;42.332;23.550;2022-11-23T10:52:30;27.74;30.73
76299;DHT22;65236;42.332;23.550;2022-11-23T10:55:00;27.81;29.68
76299;DHT22;65236;42.332;23.550;2022-11-23T11:02:39;32.36;24.08
76299;DHT22;65236;42.332;23.550;2022-11-23T11:05:31;35.00;21.56
76299;DHT22;65236;42.332;23.550;2022-11-23T11:08:02;34.17;22.87
